createdAt,value
2018-01-20T00:00:49.413Z,96735.34
2018-01-20T00:02:25.730Z,96599.79
2018-01-20T00:04:02.620Z,96544.48
2018-01-20T00:05:39.107Z,96469.27
2018-01-20T00:07:15.878Z,96539.38
2018-01-20T00:08:52.255Z,96589.05
2018-01-20T00:12:34.302Z,96620.56
2018-01-20T00:14:10.782Z,96641.77
2018-01-20T00:15:47.490Z,96674.30
2018-01-20T00:17:24.020Z,96656.54
2018-01-20T00:19:00.332Z,96609.36
2018-01-20T00:20:36.653Z,96585.53
2018-01-20T00:22:17.942Z,96702.45
2018-01-20T00:23:54.722Z,96750.47
2018-01-20T00:25:31.067Z,96697.25
2018-01-20T00:27:07.579Z,96599.41
2018-01-20T00:28:44.283Z,96566.58
2018-01-20T00:30:22.066Z,96606.77
2018-01-20T00:32:01.707Z,96478.48
2018-01-20T00:33:38.723Z,96540.19
2018-01-20T00:35:15.423Z,96491.03
2018-01-20T00:36:51.725Z,96561.85
2018-01-20T00:38:28.855Z,96579.59
2018-01-20T00:40:06.223Z,96676.94
2018-01-20T00:41:43.475Z,96617.62
2018-01-20T00:43:19.787Z,96687.28
2018-01-20T00:44:56.109Z,96592.08
2018-01-20T00:46:32.410Z,96625.37
2018-01-20T00:48:10.246Z,96722.81
2018-01-20T00:49:47.258Z,96655.65
2018-01-20T00:51:23.602Z,96653.05
2018-01-20T00:53:00.742Z,96605.75
2018-01-20T00:54:37.839Z,96553.17
2018-01-20T00:56:14.782Z,96670.38
2018-01-20T00:57:51.114Z,96621.45
2018-01-20T00:59:27.753Z,96576.95
2018-01-20T01:01:04.871Z,96653.44
2018-01-20T01:02:41.202Z,96707.11
2018-01-20T01:04:21.072Z,96736.16
2018-01-20T01:05:57.408Z,96706.33
2018-01-20T01:07:34.774Z,96679.84
2018-01-20T01:09:11.640Z,96509.86
2018-01-20T01:10:47.971Z,96576.03
2018-01-20T01:12:24.358Z,96610.17
2018-01-20T01:14:01.194Z,96619.25
2018-01-20T01:15:37.848Z,96601.50
2018-01-20T01:18:48.113Z,96510.33
2018-01-20T01:20:25.490Z,96500.75
2018-01-20T01:22:02.040Z,96517.30
2018-01-20T01:23:39.201Z,96473.17
2018-01-20T01:25:15.552Z,96408.70
2018-01-20T01:26:52.401Z,96473.52
2018-01-20T01:28:28.711Z,96501.64
2018-01-20T01:30:06.445Z,96558.71
2018-01-20T01:31:44.090Z,96493.86
2018-01-20T01:33:20.804Z,96503.89
2018-01-20T01:34:57.079Z,96593.78
2018-01-20T01:36:34.185Z,96611.03
2018-01-20T01:38:10.534Z,96692.48
2018-01-20T01:39:47.294Z,96713.20
2018-01-20T01:41:24.267Z,96748.73
2018-01-20T01:43:01.407Z,96810.19
2018-01-20T01:44:37.762Z,96876.49
2018-01-20T01:46:14.503Z,96938.97
2018-01-20T01:47:50.819Z,96973.19
2018-01-20T01:49:27.982Z,96958.01
2018-01-20T01:51:05.389Z,96970.59
2018-01-20T01:52:41.737Z,96962.78
2018-01-20T01:54:18.125Z,96857.86
2018-01-20T01:55:54.546Z,96692.06
2018-01-20T01:57:30.804Z,96692.02
2018-01-20T01:59:07.648Z,96793.34
2018-01-20T02:00:44.799Z,96898.27
2018-01-20T02:02:21.118Z,97036.53
2018-01-20T02:03:57.456Z,97101.67
2018-01-20T02:05:34.137Z,97071.63
2018-01-20T02:07:10.451Z,96881.27
2018-01-20T02:08:47.233Z,96819.81
2018-01-20T02:10:23.625Z,96961.11
2018-01-20T02:12:00.345Z,97066.10
2018-01-20T02:13:36.587Z,96989.23
2018-01-20T02:15:12.968Z,96827.08
2018-01-20T02:16:50.510Z,96851.56
2018-01-20T02:18:27.079Z,96901.69
2018-01-20T02:20:03.521Z,97066.99
2018-01-20T02:21:40.571Z,97098.61
2018-01-20T02:23:17.756Z,97073.45
2018-01-20T02:24:54.386Z,96964.68
2018-01-20T02:26:30.668Z,96946.35
2018-01-20T02:28:06.893Z,96998.87
2018-01-20T02:29:43.212Z,97032.22
2018-01-20T02:31:20.302Z,96977.66
2018-01-20T02:32:57.336Z,97049.66
2018-01-20T02:34:33.661Z,97088.61
2018-01-20T02:36:10.656Z,96987.53
2018-01-20T02:37:47.332Z,96938.19
2018-01-20T02:39:23.642Z,97020.98
2018-01-20T02:41:00.654Z,96937.66
2018-01-20T02:42:36.898Z,96918.16
2018-01-20T02:44:14.215Z,97005.86
2018-01-20T02:45:50.690Z,97007.00
2018-01-20T02:47:27.788Z,97016.59
2018-01-20T02:49:04.149Z,97035.25
2018-01-20T02:50:40.774Z,97058.29
2018-01-20T02:52:17.517Z,97083.41
2018-01-20T02:53:53.942Z,97137.72
2018-01-20T02:55:30.255Z,97088.61
2018-01-20T02:57:07.027Z,96974.98
2018-01-20T02:58:43.323Z,96985.78
2018-01-20T03:00:22.559Z,97030.50
2018-01-20T03:02:01.853Z,96964.14
2018-01-20T03:03:38.522Z,96985.82
2018-01-20T03:05:14.830Z,97051.41
2018-01-20T03:06:51.090Z,97103.81
2018-01-20T03:08:27.346Z,97014.06
2018-01-20T03:10:04.099Z,96936.48
2018-01-20T03:11:40.550Z,97000.19
2018-01-20T03:13:17.371Z,97092.19
2018-01-20T03:14:53.707Z,97104.24
2018-01-20T03:16:30.437Z,97071.70
2018-01-20T03:18:06.642Z,97139.78
2018-01-20T03:19:43.605Z,97177.73
2018-01-20T03:21:19.820Z,97185.55
2018-01-20T03:22:56.777Z,97172.91
2018-01-20T03:24:33.018Z,97165.13
2018-01-20T03:26:09.303Z,96973.70
2018-01-20T03:27:45.538Z,96841.94
2018-01-20T03:29:22.297Z,96899.20
2018-01-20T03:30:58.633Z,97034.50
2018-01-20T03:32:34.881Z,97093.58
2018-01-20T03:34:11.821Z,97060.47
2018-01-20T03:35:49.358Z,97009.67
2018-01-20T03:37:25.634Z,96999.38
2018-01-20T03:39:01.886Z,97023.16
2018-01-20T03:40:38.172Z,97077.91
2018-01-20T03:42:15.619Z,97129.98
2018-01-20T03:43:51.915Z,97099.50
2018-01-20T03:45:29.146Z,97063.07
2018-01-20T03:47:05.384Z,97115.20
2018-01-20T03:48:42.560Z,97171.59
2018-01-20T03:50:18.804Z,97017.05
2018-01-20T03:51:55.023Z,97005.44
2018-01-20T03:53:31.308Z,97093.16
2018-01-20T03:55:08.101Z,97154.78
2018-01-20T03:56:44.474Z,97107.81
2018-01-20T03:58:21.547Z,97164.27
2018-01-20T03:59:58.539Z,97199.01
2018-01-20T04:01:35.551Z,97167.70
2018-01-20T04:03:12.642Z,97177.34
2018-01-20T04:04:48.975Z,97202.08
2018-01-20T04:06:26.013Z,97201.22
2018-01-20T04:08:02.834Z,97189.94
2018-01-20T04:09:39.108Z,97127.33
2018-01-20T04:11:15.351Z,97072.20
2018-01-20T04:12:52.409Z,96995.41
2018-01-20T04:14:28.991Z,96922.62
2018-01-20T04:16:05.762Z,96996.27
2018-01-20T04:17:42.720Z,97030.61
2018-01-20T04:19:18.931Z,96972.53
2018-01-20T04:20:55.587Z,97095.29
2018-01-20T04:22:31.883Z,97053.98
2018-01-20T04:24:08.183Z,96997.55
2018-01-20T04:25:44.507Z,96978.47
2018-01-20T04:27:21.203Z,97049.19
2018-01-20T04:28:57.514Z,97010.56
2018-01-20T04:30:34.111Z,97015.81
2018-01-20T04:32:11.526Z,97004.11
2018-01-20T04:33:49.036Z,97016.20
2018-01-20T04:35:25.396Z,97078.31
2018-01-20T04:37:01.903Z,97011.84
2018-01-20T04:38:38.146Z,96952.45
2018-01-20T04:40:14.825Z,96932.13
2018-01-20T04:41:51.171Z,97017.12
2018-01-20T04:43:27.781Z,97053.98
2018-01-20T04:45:04.509Z,96827.19
2018-01-20T04:46:41.605Z,96793.00
2018-01-20T04:48:17.839Z,96852.77
2018-01-20T04:49:54.162Z,96866.20
2018-01-20T04:51:30.386Z,96799.44
2018-01-20T04:53:07.075Z,96845.00
2018-01-20T04:54:43.307Z,96879.59
2018-01-20T04:56:19.493Z,96875.71
2018-01-20T04:57:55.708Z,96640.09
2018-01-20T04:59:31.939Z,96703.34
2018-01-20T05:01:09.010Z,96758.70
2018-01-20T05:02:45.224Z,96804.22
2018-01-20T05:04:21.462Z,96790.36
2018-01-20T05:05:58.049Z,96728.44
2018-01-20T05:07:34.286Z,96760.91
2018-01-20T05:09:10.470Z,96879.25
2018-01-20T05:10:47.253Z,96919.48
2018-01-20T05:12:23.484Z,96912.98
2018-01-20T05:13:59.810Z,96799.44
2018-01-20T05:15:36.268Z,96827.58
2018-01-20T05:17:13.055Z,96897.42
2018-01-20T05:18:49.292Z,96911.56
2018-01-20T05:20:26.725Z,96909.53
2018-01-20T05:22:02.973Z,96942.47
2018-01-20T05:23:39.538Z,96974.55
2018-01-20T05:25:15.911Z,96876.10
2018-01-20T05:26:52.209Z,96725.49
2018-01-20T05:28:28.506Z,96677.36
2018-01-20T05:30:05.194Z,96696.41
2018-01-20T05:31:44.250Z,96823.38
2018-01-20T05:33:20.589Z,96909.53
2018-01-20T05:34:56.898Z,96949.88
2018-01-20T05:36:33.648Z,96864.95
2018-01-20T05:38:10.040Z,96958.19
2018-01-20T05:39:47.077Z,96955.98
2018-01-20T05:41:23.643Z,96963.64
2018-01-20T05:43:00.362Z,97041.45
2018-01-20T05:44:40.517Z,97064.43
2018-01-20T05:46:17.830Z,96996.70
2018-01-20T05:47:54.125Z,96997.59
2018-01-20T05:49:30.504Z,97042.31
2018-01-20T05:51:07.511Z,97090.86
2018-01-20T05:52:43.804Z,97060.89
2018-01-20T05:54:20.050Z,97067.03
2018-01-20T05:55:56.762Z,97078.31
2018-01-20T05:57:33.113Z,97047.05
2018-01-20T05:59:09.521Z,96965.46
2018-01-20T06:00:46.826Z,96968.10
2018-01-20T06:02:23.422Z,96956.83
2018-01-20T06:03:59.719Z,96965.03
2018-01-20T06:05:36.037Z,96955.05
2018-01-20T06:07:12.330Z,96953.34
2018-01-20T06:08:49.187Z,96940.76
2018-01-20T06:10:25.585Z,96929.45
2018-01-20T06:12:02.848Z,96901.30
2018-01-20T06:13:39.132Z,96900.41
2018-01-20T06:15:17.982Z,96882.20
2018-01-20T06:16:54.546Z,96855.37
2018-01-20T06:18:31.753Z,96830.61
2018-01-20T06:20:09.674Z,96865.66
2018-01-20T06:21:46.486Z,96886.97
2018-01-20T06:23:22.748Z,96898.27
2018-01-20T06:24:59.848Z,96881.30
2018-01-20T06:26:36.089Z,96905.57
2018-01-20T06:28:14.045Z,96935.55
2018-01-20T06:29:50.382Z,96985.39
2018-01-20T06:31:27.192Z,97012.78
2018-01-20T06:33:03.456Z,96991.45
2018-01-20T06:34:41.532Z,97007.50
2018-01-20T06:36:18.175Z,96998.91
2018-01-20T06:37:54.567Z,96926.85
2018-01-20T06:39:30.884Z,96774.33
2018-01-20T06:41:08.091Z,96621.95
2018-01-20T06:42:44.856Z,96694.70
2018-01-20T06:44:21.453Z,96821.17
2018-01-20T06:46:02.147Z,96870.47
2018-01-20T06:47:39.618Z,96906.97
2018-01-20T06:49:15.872Z,96866.91
2018-01-20T06:50:52.331Z,96840.62
2018-01-20T06:52:28.626Z,96828.86
2018-01-20T06:56:49.594Z,96733.67
2018-01-20T06:58:26.508Z,96844.58
2018-01-20T07:00:04.764Z,96893.92
2018-01-20T07:01:41.491Z,96891.78
2018-01-20T07:03:17.809Z,96865.27
2018-01-20T07:04:54.031Z,96795.56
2018-01-20T07:06:32.913Z,96644.84
2018-01-20T07:08:09.506Z,96693.37
2018-01-20T07:09:46.256Z,96780.39
2018-01-20T07:11:22.740Z,96807.63
2018-01-20T07:13:00.943Z,96859.75
2018-01-20T07:14:38.112Z,96877.84
2018-01-20T07:16:15.410Z,96863.59
2018-01-20T07:17:51.725Z,96864.45
2018-01-20T07:19:30.299Z,96906.50
2018-01-20T07:21:08.771Z,96852.27
2018-01-20T07:22:45.134Z,96750.55
2018-01-20T07:26:08.574Z,96682.98
2018-01-20T07:27:45.001Z,96737.98
2018-01-20T07:29:21.752Z,96900.88
2018-01-20T07:30:58.865Z,97041.45
2018-01-20T07:32:35.958Z,97100.35
2018-01-20T07:34:13.342Z,96902.08
2018-01-20T07:35:49.893Z,96747.88
2018-01-20T07:37:27.166Z,96676.00
2018-01-20T07:39:04.081Z,96663.05
2018-01-20T07:40:40.485Z,96633.24
2018-01-20T07:43:53.857Z,96658.28
2018-01-20T07:45:30.271Z,96799.05
2018-01-20T07:47:07.075Z,96920.83
2018-01-20T07:48:43.749Z,96907.36
2018-01-20T07:50:20.481Z,96921.26
2018-01-20T07:51:57.153Z,96965.89
2018-01-20T07:53:33.539Z,97069.17
2018-01-20T07:55:10.265Z,97129.98
2018-01-20T07:56:47.650Z,97145.53
2018-01-20T07:58:24.065Z,97184.30
2018-01-20T08:00:00.459Z,97249.86
2018-01-20T08:01:37.514Z,97294.11
2018-01-20T08:03:13.923Z,97333.77
2018-01-20T08:04:50.275Z,97356.75
2018-01-20T08:06:27.307Z,97361.08
2018-01-20T08:08:04.081Z,97317.59
2018-01-20T08:09:40.420Z,97253.71
2018-01-20T08:11:16.574Z,97228.86
2018-01-20T08:12:52.975Z,97190.26
2018-01-20T08:14:29.632Z,97181.19
2018-01-20T08:16:06.007Z,97145.46
2018-01-20T08:17:42.323Z,97106.03
2018-01-20T08:19:18.592Z,97066.92
2018-01-20T08:20:55.446Z,97072.67
2018-01-20T08:22:31.754Z,97084.77
2018-01-20T08:24:07.999Z,97079.16
2018-01-20T08:25:44.236Z,97119.98
2018-01-20T08:27:20.917Z,97137.33
2018-01-20T08:28:57.303Z,97077.84
2018-01-20T08:30:33.822Z,97133.01
2018-01-20T08:32:10.120Z,97145.17
2018-01-20T08:33:46.851Z,97129.90
2018-01-20T08:35:23.270Z,97093.00
2018-01-20T08:36:59.571Z,97075.20
2018-01-20T08:38:36.008Z,97052.16
2018-01-20T08:40:13.608Z,97014.41
2018-01-20T08:41:49.883Z,97007.00
2018-01-20T08:43:26.453Z,96979.69
2018-01-20T08:45:02.925Z,97002.75
2018-01-20T08:46:40.060Z,97035.32
2018-01-20T08:48:16.715Z,96981.00
2018-01-20T08:49:54.267Z,96969.42
2018-01-20T08:51:33.988Z,97040.06
2018-01-20T08:53:10.395Z,97082.59
2018-01-20T08:54:47.810Z,97114.27
2018-01-20T08:56:24.266Z,97138.57
2018-01-20T08:58:00.873Z,97125.55
2018-01-20T08:59:37.734Z,97093.89
2018-01-20T09:01:14.622Z,97089.16
2018-01-20T09:02:51.014Z,97054.33
2018-01-20T09:04:27.267Z,97023.47
2018-01-20T09:06:04.075Z,96993.62
2018-01-20T09:07:41.089Z,96945.45
2018-01-20T09:09:17.507Z,96880.38
2018-01-20T09:10:53.817Z,96868.37
2018-01-20T09:12:30.696Z,96837.52
2018-01-20T09:14:07.856Z,96834.06
2018-01-20T09:15:44.393Z,96850.56
2018-01-20T09:17:20.952Z,96870.90
2018-01-20T09:18:57.725Z,96948.14
2018-01-20T09:20:34.018Z,96994.05
2018-01-20T09:22:10.315Z,97026.08
2018-01-20T09:23:46.694Z,97047.34
2018-01-20T09:25:23.465Z,97017.52
2018-01-20T09:26:59.898Z,97026.94
2018-01-20T09:28:36.236Z,96993.59
2018-01-20T09:30:13.261Z,97011.34
2018-01-20T09:31:53.363Z,97077.38
2018-01-20T09:33:30.427Z,96918.58
2018-01-20T09:35:08.181Z,96886.50
2018-01-20T09:36:44.430Z,96747.02
2018-01-20T09:38:20.714Z,96505.59
2018-01-20T09:39:57.190Z,96340.55
2018-01-20T09:41:33.827Z,96202.20
2018-01-20T09:43:10.165Z,96065.94
2018-01-20T09:44:47.362Z,95985.72
2018-01-20T09:46:23.933Z,95968.89
2018-01-20T09:48:00.378Z,95967.11
2018-01-20T09:49:36.861Z,95966.26
2018-01-20T09:51:13.756Z,95964.13
2018-01-20T09:52:53.334Z,95989.97
2018-01-20T09:56:12.372Z,96042.52
2018-01-20T09:57:50.061Z,96037.30
2018-01-20T09:59:26.629Z,96080.37
2018-01-20T10:01:03.635Z,96115.03
2018-01-20T10:02:42.469Z,96178.92
2018-01-20T10:04:24.736Z,96300.69
2018-01-20T10:06:02.029Z,96429.84
2018-01-20T10:07:39.208Z,96460.59
2018-01-20T10:09:18.820Z,96515.05
2018-01-20T10:10:56.731Z,96643.48
2018-01-20T10:12:38.344Z,96582.50
2018-01-20T10:14:21.517Z,96585.09
2018-01-20T10:16:04.752Z,96532.75
2018-01-20T10:17:43.415Z,96659.41
2018-01-20T10:19:21.585Z,96679.96
2018-01-20T10:20:58.171Z,96634.83
2018-01-20T10:22:35.104Z,96463.69
2018-01-20T10:24:19.233Z,96290.28
2018-01-20T10:25:59.407Z,96246.15
2018-01-20T10:27:38.419Z,96230.58
2018-01-20T10:29:19.303Z,96188.74
2018-01-20T10:30:59.346Z,96209.97
2018-01-20T10:32:36.093Z,96290.28
2018-01-20T10:34:19.815Z,96498.58
2018-01-20T10:35:57.189Z,96540.96
2018-01-20T10:37:33.765Z,96559.98
2018-01-20T10:39:10.293Z,96716.61
2018-01-20T10:40:46.815Z,96785.94
2018-01-20T10:42:23.644Z,96709.67
2018-01-20T10:44:00.436Z,96906.00
2018-01-20T10:45:37.838Z,97031.67
2018-01-20T10:47:14.526Z,97089.86
2018-01-20T10:48:52.119Z,97143.64
2018-01-20T10:50:28.645Z,97146.74
2018-01-20T10:52:04.989Z,97132.36
2018-01-20T10:53:41.375Z,97177.16
2018-01-20T10:55:18.009Z,97119.84
2018-01-20T10:56:54.853Z,97207.58
2018-01-20T10:58:31.287Z,97216.28
2018-01-20T11:00:08.914Z,97259.25
2018-01-20T11:01:46.058Z,97333.20
2018-01-20T11:03:22.496Z,97334.91
2018-01-20T11:05:00.336Z,97321.45
2018-01-20T11:06:36.794Z,97288.86
2018-01-20T11:08:14.800Z,97285.39
2018-01-20T11:09:51.292Z,97264.97
2018-01-20T11:11:27.813Z,97283.18
2018-01-20T11:13:05.427Z,97412.83
2018-01-20T11:14:43.508Z,97536.40
2018-01-20T11:16:20.342Z,97586.89
2018-01-20T11:17:57.914Z,97616.02
2018-01-20T11:19:34.852Z,97635.56
2018-01-20T11:21:11.784Z,97590.33
2018-01-20T11:22:49.120Z,97478.95
2018-01-20T11:24:27.394Z,97480.70
2018-01-20T11:26:04.119Z,97485.56
2018-01-20T11:27:40.871Z,97465.04
2018-01-20T11:29:18.678Z,97485.95
2018-01-20T11:30:55.418Z,97376.66
2018-01-20T11:32:31.915Z,97351.89
2018-01-20T11:34:10.244Z,97224.61
2018-01-20T11:35:46.836Z,97237.18
2018-01-20T11:37:23.369Z,97218.47
2018-01-20T11:38:59.831Z,97210.25
2018-01-20T11:40:37.876Z,97154.24
2018-01-20T11:42:14.325Z,97128.97
2018-01-20T11:43:50.835Z,97125.55
2018-01-20T11:45:29.363Z,97125.94
2018-01-20T11:47:06.191Z,97106.49
2018-01-20T11:48:42.894Z,97057.01
2018-01-20T11:50:20.364Z,96939.36
2018-01-20T11:51:57.064Z,96919.94
2018-01-20T11:53:34.917Z,96929.84
2018-01-20T11:55:12.220Z,96883.94
2018-01-20T11:56:50.546Z,96827.93
2018-01-20T11:58:29.086Z,96815.00
2018-01-20T12:00:07.103Z,96766.03
2018-01-20T12:01:44.376Z,96715.02
2018-01-20T12:03:22.396Z,96767.39
2018-01-20T12:04:59.590Z,96791.67
2018-01-20T12:06:38.283Z,96914.77
2018-01-20T12:08:16.716Z,96971.91
2018-01-20T12:09:53.468Z,96945.45
2018-01-20T12:17:54.687Z,96838.48
2018-01-20T12:19:32.851Z,96333.42
2018-01-20T12:21:10.969Z,96217.31
2018-01-20T12:22:49.761Z,96267.94
2018-01-20T12:24:28.539Z,96271.38
2018-01-20T12:26:08.517Z,96289.98
2018-01-20T12:27:45.383Z,96387.45
2018-01-20T12:29:24.157Z,96441.19
2018-01-20T12:31:01.424Z,96367.67
2018-01-20T12:32:38.534Z,96355.14
2018-01-20T12:34:15.310Z,96204.32
2018-01-20T12:35:52.535Z,96210.00
2018-01-20T12:37:30.232Z,96180.97
2018-01-20T12:39:07.590Z,96100.31
2018-01-20T12:40:44.716Z,96029.61
2018-01-20T12:42:22.039Z,95990.39
2018-01-20T12:43:59.127Z,95959.47
2018-01-20T12:45:35.986Z,95915.03
2018-01-20T12:47:13.304Z,95920.98
2018-01-20T12:48:51.700Z,95923.64
2018-01-20T12:50:28.748Z,95922.29
2018-01-20T12:52:06.095Z,95957.22
2018-01-20T12:53:44.427Z,96030.93
2018-01-20T12:55:23.436Z,96105.53
2018-01-20T12:57:00.831Z,96251.07
2018-01-20T12:58:39.728Z,96245.35
2018-01-20T13:00:18.464Z,96332.23
2018-01-20T13:01:57.311Z,96354.16
2018-01-20T13:03:34.436Z,96456.29
2018-01-20T13:05:11.543Z,96590.25
2018-01-20T13:06:50.290Z,96671.66
2018-01-20T13:08:29.277Z,96701.45
2018-01-20T13:10:09.219Z,96427.67
2018-01-20T13:11:48.347Z,96315.74
2018-01-20T13:13:26.002Z,96188.31
2018-01-20T13:15:04.250Z,96139.06
2018-01-20T13:16:55.307Z,96196.52
2018-01-20T13:18:33.014Z,96353.86
2018-01-20T13:20:10.088Z,96525.89
2018-01-20T13:21:50.809Z,96478.28
2018-01-20T13:23:30.854Z,96134.01
2018-01-20T13:25:11.235Z,96059.74
2018-01-20T13:26:49.886Z,96014.90
2018-01-20T13:28:29.873Z,95941.78
2018-01-20T13:30:11.835Z,95890.36
2018-01-20T13:31:52.452Z,95907.66
2018-01-20T13:33:29.845Z,95900.33
2018-01-20T13:35:08.045Z,95856.00
2018-01-20T13:36:45.685Z,95819.01
2018-01-20T13:38:23.267Z,95828.88
2018-01-20T13:40:00.278Z,95777.53
2018-01-20T13:41:39.554Z,95715.13
2018-01-20T13:43:18.552Z,95728.54
2018-01-20T13:44:57.669Z,95715.55
2018-01-20T13:46:34.824Z,95700.52
2018-01-20T13:48:12.931Z,95703.47
2018-01-20T13:52:20.465Z,95847.35
2018-01-20T13:53:59.636Z,96005.91
2018-01-20T13:55:41.050Z,96209.42
2018-01-20T13:57:19.290Z,96266.92
2018-01-20T13:59:01.958Z,96409.83
2018-01-20T14:00:39.400Z,96305.30
2018-01-20T14:02:17.618Z,96179.69
2018-01-20T14:03:59.479Z,96193.50
2018-01-20T14:05:38.641Z,96158.08
2018-01-20T14:07:18.875Z,96150.27
2018-01-20T14:08:58.890Z,96124.46
2018-01-20T14:10:38.838Z,96127.39
2018-01-20T14:12:17.769Z,96088.64
2018-01-20T14:13:57.176Z,96060.17
2018-01-20T14:17:17.553Z,95981.34
2018-01-20T14:18:54.253Z,96005.05
2018-01-20T14:20:32.504Z,96048.53
2018-01-20T14:22:11.131Z,96077.44
2018-01-20T14:23:49.756Z,96055.88
2018-01-20T14:26:55.873Z,96072.72
2018-01-20T14:28:34.049Z,96102.86
2018-01-20T14:30:12.299Z,96087.75
2018-01-20T14:31:54.647Z,96112.78
2018-01-20T14:33:34.070Z,96256.25
2018-01-20T14:35:12.948Z,96265.27
2018-01-20T14:36:52.683Z,96198.17
2018-01-20T14:38:29.578Z,96191.84
2018-01-20T14:40:06.164Z,96244.92
2018-01-20T14:41:42.705Z,96217.27
2018-01-20T14:43:19.707Z,96297.25
2018-01-20T14:44:56.392Z,96336.52
2018-01-20T14:46:35.216Z,96369.38
2018-01-20T14:48:16.318Z,96415.48
2018-01-20T14:49:55.891Z,96516.79
2018-01-20T14:51:35.211Z,96372.32
2018-01-20T14:53:15.417Z,96335.25
2018-01-20T14:54:54.827Z,96398.68
2018-01-20T14:58:00.925Z,96485.72
2018-01-20T14:59:38.791Z,96629.55
2018-01-20T15:01:17.127Z,96650.80
2018-01-20T15:02:55.150Z,96564.37
2018-01-20T15:04:34.607Z,96559.13
2018-01-20T15:06:16.294Z,96508.61
2018-01-20T15:07:57.397Z,96545.77
2018-01-20T15:09:36.859Z,96687.28
2018-01-20T15:11:18.731Z,96794.63
2018-01-20T15:12:58.643Z,96747.09
2018-01-20T15:14:37.699Z,96886.11
2018-01-20T15:16:18.723Z,96965.07
2018-01-20T15:17:56.982Z,96870.90
2018-01-20T15:19:38.626Z,96664.26
2018-01-20T15:21:18.636Z,96513.81
2018-01-20T15:22:59.642Z,96370.34
2018-01-20T15:24:40.988Z,96216.54
2018-01-20T15:26:19.459Z,96268.05
2018-01-20T15:28:01.597Z,96479.80
2018-01-20T15:29:43.848Z,96641.84
2018-01-20T15:31:25.032Z,96710.25
2018-01-20T15:33:05.722Z,96772.62
2018-01-20T15:34:46.399Z,96833.63
2018-01-20T15:36:29.013Z,96904.83
2018-01-20T15:38:09.246Z,96915.63
2018-01-20T15:39:54.172Z,96925.18
2018-01-20T15:41:38.217Z,96924.25
2018-01-20T15:43:18.529Z,96927.31
2018-01-20T15:44:59.959Z,96941.58
2018-01-20T15:46:39.866Z,96939.86
2018-01-20T15:48:21.019Z,96990.20
2018-01-20T15:50:06.345Z,97017.98
2018-01-20T15:51:47.323Z,97055.30
2018-01-20T15:53:30.436Z,97046.23
2018-01-20T15:55:13.340Z,97076.16
2018-01-20T15:56:52.722Z,97002.44
2018-01-20T15:58:33.814Z,97061.44
2018-01-20T16:00:29.654Z,97112.59
2018-01-20T16:02:11.104Z,97118.70
2018-01-20T16:03:52.181Z,97076.70
2018-01-20T16:05:35.856Z,96950.77
2018-01-20T16:07:16.951Z,96889.69
2018-01-20T16:08:57.898Z,96832.58
2018-01-20T16:10:38.854Z,96665.34
2018-01-20T16:12:18.743Z,96464.66
2018-01-20T16:13:58.732Z,96311.27
2018-01-20T16:15:40.349Z,96198.53
2018-01-20T16:17:18.541Z,96089.31
2018-01-20T16:18:56.491Z,95987.58
2018-01-20T16:20:35.374Z,95891.98
2018-01-20T16:22:15.139Z,95866.51
2018-01-20T16:23:55.826Z,95897.52
2018-01-20T16:25:33.858Z,95916.05
2018-01-20T16:27:13.366Z,95882.91
2018-01-20T16:28:54.251Z,95877.27
2018-01-20T16:30:33.050Z,95896.17
2018-01-20T16:32:10.992Z,95879.42
2018-01-20T16:33:50.932Z,95884.59
2018-01-20T16:35:28.821Z,95865.69
2018-01-20T16:37:05.467Z,95847.14
2018-01-20T16:38:43.481Z,95860.56
2018-01-20T16:40:22.469Z,95887.27
2018-01-20T16:41:59.529Z,95892.27
2018-01-20T16:43:39.447Z,95928.12
2018-01-20T16:45:18.308Z,95930.64
2018-01-20T16:46:57.690Z,95924.70
2018-01-20T16:48:36.892Z,95950.94
2018-01-20T16:50:14.340Z,95949.28
2018-01-20T16:51:52.990Z,95883.70
2018-01-20T16:53:33.090Z,95849.30
2018-01-20T16:55:20.841Z,95853.63
2018-01-20T16:57:00.160Z,95850.19
2018-01-20T16:58:40.670Z,95879.42
2018-01-20T17:00:22.007Z,95923.38
2018-01-20T17:02:02.439Z,95948.35
2018-01-20T17:03:43.533Z,95959.93
2018-01-20T17:05:22.363Z,95972.48
2018-01-20T17:07:03.003Z,95957.81
2018-01-20T17:08:44.279Z,95949.28
2018-01-20T17:10:26.382Z,95919.10
2018-01-20T17:12:05.361Z,95920.33
2018-01-20T17:13:47.981Z,95912.53
2018-01-20T17:15:30.651Z,95922.45
2018-01-20T17:17:11.910Z,95836.80
2018-01-20T17:18:50.731Z,95773.90
2018-01-20T17:20:38.449Z,95762.72
2018-01-20T17:22:20.389Z,95748.09
2018-01-20T17:24:01.734Z,95691.24
2018-01-20T17:25:43.430Z,95672.41
2018-01-20T17:27:23.492Z,95662.42
2018-01-20T17:29:03.232Z,95716.73
2018-01-20T17:30:43.295Z,95743.83
2018-01-20T17:32:21.628Z,95752.77
2018-01-20T17:33:59.692Z,95742.05
2018-01-20T17:35:40.766Z,95757.13
2018-01-20T17:37:19.950Z,95743.41
2018-01-20T17:39:00.541Z,95737.35
2018-01-20T17:40:39.898Z,95770.92
2018-01-20T17:42:20.010Z,95810.15
2018-01-20T17:44:02.745Z,95830.31
2018-01-20T17:45:45.482Z,95796.22
2018-01-20T17:47:28.027Z,95822.52
2018-01-20T17:49:08.229Z,95831.63
2018-01-20T17:50:50.710Z,95834.25
2018-01-20T17:52:32.009Z,95846.30
2018-01-20T17:54:14.264Z,95853.20
2018-01-20T17:55:56.978Z,95951.91
2018-01-20T17:57:35.188Z,95981.98
2018-01-20T17:59:14.982Z,95983.68
2018-01-20T18:00:57.476Z,95973.80
2018-01-20T18:02:36.727Z,95931.22
2018-01-20T18:04:16.178Z,95920.38
2018-01-20T18:05:58.368Z,95890.27
2018-01-20T18:07:39.600Z,95939.37
2018-01-20T18:09:21.235Z,95978.63
2018-01-20T18:11:03.022Z,96008.32
2018-01-20T18:12:43.368Z,96028.55
2018-01-20T18:14:26.903Z,96071.77
2018-01-20T18:16:09.079Z,96188.22
2018-01-20T18:17:49.778Z,96188.52
2018-01-20T18:19:33.492Z,96169.16
2018-01-20T18:21:12.735Z,96233.14
2018-01-20T18:22:51.864Z,96221.89
2018-01-20T18:24:33.869Z,96182.11
2018-01-20T18:26:15.553Z,96095.84
2018-01-20T18:27:57.594Z,96047.52
2018-01-20T18:29:41.264Z,96022.98
2018-01-20T18:31:21.954Z,96048.91
2018-01-20T18:33:03.010Z,96036.36
2018-01-20T18:34:45.163Z,96032.92
2018-01-20T18:36:29.488Z,96102.46
2018-01-20T18:38:14.561Z,96145.08
2018-01-20T18:39:57.758Z,96185.23
2018-01-20T18:41:40.241Z,96209.75
2018-01-20T18:43:22.562Z,96180.91
2018-01-20T18:45:03.974Z,96084.59
2018-01-20T18:46:47.840Z,96019.55
2018-01-20T18:48:29.990Z,96023.88
2018-01-20T18:50:12.527Z,96067.41
2018-01-20T18:51:58.797Z,96058.84
2018-01-20T18:53:45.457Z,96031.65
2018-01-20T18:55:28.197Z,95991.56
2018-01-20T18:57:11.350Z,96006.20
2018-01-20T18:58:55.281Z,96010.64
2018-01-20T19:00:36.269Z,96001.06
2018-01-20T19:02:20.610Z,95976.97
2018-01-20T19:04:10.802Z,95975.23
2018-01-20T19:05:54.831Z,95978.58
2018-01-20T19:07:38.236Z,95979.94
2018-01-20T19:09:21.407Z,95986.34
2018-01-20T19:11:05.785Z,96070.97
2018-01-20T19:12:48.238Z,96102.00
2018-01-20T19:14:31.101Z,96121.39
2018-01-20T19:16:14.650Z,96117.52
2018-01-20T19:18:02.645Z,96126.14
2018-01-20T19:19:48.518Z,96133.48
2018-01-20T19:21:34.490Z,96166.22
2018-01-20T19:23:15.828Z,96183.42
2018-01-20T19:25:01.299Z,96177.42
2018-01-20T19:26:47.543Z,96235.00
2018-01-20T19:28:32.044Z,96234.11
2018-01-20T19:30:18.834Z,96249.19
2018-01-20T19:32:00.141Z,96267.29
2018-01-20T19:33:42.672Z,96326.05
2018-01-20T19:35:24.928Z,96339.52
2018-01-20T19:37:07.170Z,96401.28
2018-01-20T19:38:55.670Z,96424.31